createdAt,value
2022-11-26T00:02:23.267Z,3.76
2022-11-26T00:12:32.860Z,3.77
2022-11-26T00:22:44.250Z,3.73
2022-11-26T00:32:52.348Z,3.64
2022-11-26T00:43:01.865Z,3.55
2022-11-26T00:53:13.427Z,3.51
2022-11-26T01:03:20.625Z,3.56
2022-11-26T01:13:29.115Z,3.67
2022-11-26T01:23:36.375Z,3.64
2022-11-26T01:33:43.343Z,3.53
2022-11-26T01:43:53.225Z,3.41
2022-11-26T01:54:00.525Z,3.34
2022-11-26T02:04:10.316Z,3.35
2022-11-26T02:14:18.148Z,3.40
2022-11-26T02:24:29.054Z,3.45
2022-11-26T02:34:37.782Z,3.44
2022-11-26T02:44:47.608Z,3.38
2022-11-26T02:54:54.264Z,3.22
2022-11-26T03:05:03.783Z,3.02
2022-11-26T03:15:12.499Z,2.85
2022-11-26T03:25:20.129Z,2.75
2022-11-26T03:35:27.250Z,2.74
2022-11-26T03:45:34.382Z,2.79
2022-11-26T03:55:41.685Z,2.83
2022-11-26T04:05:48.665Z,2.91
2022-11-26T04:15:56.281Z,2.99
2022-11-26T04:26:03.791Z,2.90
2022-11-26T04:36:10.244Z,2.77
2022-11-26T04:46:17.509Z,2.76
2022-11-26T04:56:25.574Z,2.83
2022-11-26T05:06:33.033Z,2.91
2022-11-26T05:16:40.664Z,2.92
2022-11-26T05:26:51.192Z,2.83
2022-11-26T05:37:02.263Z,2.63
2022-11-26T05:47:09.633Z,2.54
2022-11-26T05:57:16.785Z,2.61
2022-11-26T06:07:23.904Z,2.53
2022-11-26T06:17:31.987Z,2.53
2022-11-26T06:27:39.971Z,2.52
2022-11-26T06:37:46.965Z,2.40
2022-11-26T06:47:54.767Z,2.41
2022-11-26T06:58:01.806Z,2.52
2022-11-26T07:08:08.082Z,2.66
2022-11-26T07:18:15.386Z,2.78
2022-11-26T07:28:22.619Z,2.91
2022-11-26T07:38:30.771Z,2.96
2022-11-26T07:48:40.461Z,2.94
2022-11-26T07:58:46.276Z,2.95
2022-11-26T08:08:53.735Z,3.08
2022-11-26T08:19:03.148Z,3.23
2022-11-26T08:29:10.306Z,3.34
2022-11-26T08:39:19.319Z,3.47
2022-11-26T08:49:26.414Z,3.47
2022-11-26T08:59:33.731Z,3.51
2022-11-26T09:09:41.000Z,3.60
2022-11-26T09:19:48.151Z,3.80
2022-11-26T09:29:55.677Z,3.98
2022-11-26T09:40:02.907Z,4.17
2022-11-26T09:50:09.348Z,4.36
2022-11-26T10:00:24.117Z,4.60
2022-11-26T10:10:34.470Z,4.73
2022-11-26T10:20:52.104Z,4.81
2022-11-26T10:30:57.525Z,4.83
2022-11-26T10:41:04.744Z,4.83
2022-11-26T10:51:13.801Z,4.83
2022-11-26T11:01:21.955Z,4.97
2022-11-26T11:11:32.172Z,5.16
2022-11-26T11:21:48.359Z,5.25
2022-11-26T11:31:56.872Z,5.38
2022-11-26T11:42:01.693Z,5.26
2022-11-26T11:52:13.290Z,5.22
2022-11-26T12:02:23.987Z,5.29
2022-11-26T12:12:36.248Z,5.31
2022-11-26T12:22:44.702Z,5.31
2022-11-26T12:32:54.450Z,5.21
2022-11-26T12:43:03.552Z,5.09
2022-11-26T12:53:19.100Z,5.04
2022-11-26T13:03:32.437Z,5.02
2022-11-26T13:13:37.968Z,4.95
2022-11-26T13:23:48.135Z,4.89
2022-11-26T13:34:29.781Z,4.82
2022-11-26T13:54:58.332Z,4.81
2022-11-26T14:05:08.885Z,4.83
2022-11-26T14:15:47.085Z,4.79
2022-11-26T14:25:54.814Z,4.72
2022-11-26T14:36:02.330Z,4.67
2022-11-26T14:46:08.137Z,4.55
2022-11-26T14:56:15.624Z,4.49
2022-11-26T15:06:25.405Z,4.44
2022-11-26T15:16:36.367Z,4.39
2022-11-26T15:26:46.321Z,4.33
2022-11-26T15:36:54.332Z,4.30
2022-11-26T15:47:02.859Z,4.22
2022-11-26T15:57:20.309Z,4.06
2022-11-26T16:07:27.572Z,3.85
2022-11-26T16:17:35.144Z,3.76
2022-11-26T16:27:46.412Z,3.63
2022-11-26T16:37:57.002Z,3.47
2022-11-26T16:48:05.065Z,3.24
2022-11-26T16:58:17.310Z,3.14
2022-11-26T17:08:25.248Z,3.06
2022-11-26T17:18:33.265Z,3.00
2022-11-26T17:28:40.293Z,2.97
2022-11-26T17:38:48.783Z,2.88
2022-11-26T17:48:59.789Z,2.66
2022-11-26T17:59:07.492Z,2.55
2022-11-26T18:09:13.615Z,2.55
2022-11-26T18:19:23.279Z,2.58
2022-11-26T18:29:30.313Z,2.56
2022-11-26T18:39:38.531Z,2.31
2022-11-26T18:49:47.939Z,2.12
2022-11-26T18:59:55.533Z,2.06
2022-11-26T19:10:02.072Z,2.08
2022-11-26T19:20:09.974Z,2.11
2022-11-26T19:30:17.978Z,2.12
2022-11-26T19:40:25.227Z,2.09
2022-11-26T19:50:33.498Z,1.98
2022-11-26T20:00:40.261Z,1.93
2022-11-26T20:10:50.128Z,2.01
2022-11-26T20:20:58.172Z,2.19
2022-11-26T20:31:06.967Z,2.22
2022-11-26T20:41:17.688Z,2.16
2022-11-26T20:51:25.686Z,2.07
2022-11-26T21:01:33.646Z,2.06
2022-11-26T21:11:41.556Z,2.10
2022-11-26T21:21:47.685Z,2.20
2022-11-26T21:31:53.867Z,2.28
2022-11-26T21:42:01.621Z,2.29
2022-11-26T21:52:07.876Z,2.27
2022-11-26T22:02:14.309Z,2.15
2022-11-26T22:12:22.119Z,2.02
2022-11-26T22:22:29.476Z,1.97
2022-11-26T22:32:37.989Z,2.01
2022-11-26T22:42:45.490Z,2.07
2022-11-26T22:52:52.830Z,2.24
2022-11-26T23:03:00.328Z,2.23
2022-11-26T23:13:08.631Z,2.16
2022-11-26T23:23:16.269Z,2.09
2022-11-26T23:33:23.810Z,2.07
2022-11-26T23:43:33.076Z,2.07
2022-11-26T23:53:42.062Z,2.11
